createdAt,value
2022-08-04T00:01:33.157Z,67.49
2022-08-04T00:06:46.989Z,70.74
2022-08-04T00:11:53.634Z,70.94
2022-08-04T00:16:56.836Z,70.15
2022-08-04T00:22:05.024Z,67.77
2022-08-04T00:27:09.410Z,69.46
2022-08-04T00:32:13.496Z,70.21
2022-08-04T00:37:18.119Z,65.98
2022-08-04T00:42:58.437Z,67.29
2022-08-04T00:48:11.423Z,69.24
2022-08-04T00:53:31.447Z,67.58
2022-08-04T00:58:45.000Z,65.74
2022-08-04T01:03:52.225Z,68.25
2022-08-04T01:09:07.106Z,66.57
2022-08-04T01:14:28.344Z,64.44
2022-08-04T01:19:55.597Z,65.42
2022-08-04T01:25:15.925Z,65.18
2022-08-04T01:30:20.789Z,68.97
2022-08-04T01:35:48.167Z,67.85
2022-08-04T01:40:48.419Z,66.97
2022-08-04T01:45:59.128Z,71.51
2022-08-04T01:51:06.109Z,72.74
2022-08-04T01:56:10.148Z,70.32
2022-08-04T02:01:14.500Z,69.03
2022-08-04T02:06:32.456Z,67.63
2022-08-04T02:11:35.219Z,68.83
2022-08-04T02:16:52.464Z,69.15
2022-08-04T02:21:58.656Z,66.73
2022-08-04T02:27:04.124Z,71.85
2022-08-04T02:32:14.487Z,71.63
2022-08-04T02:37:18.452Z,70.54
2022-08-04T02:42:21.511Z,70.77
2022-08-04T02:48:23.699Z,75.73
2022-08-04T02:52:52.973Z,77.03
2022-08-04T02:57:57.444Z,77.11
2022-08-04T03:03:14.985Z,73.54
2022-08-04T03:08:39.617Z,73.64
2022-08-04T03:14:13.984Z,74.94
2022-08-04T03:19:51.063Z,71.38
2022-08-04T03:25:21.248Z,66.80
2022-08-04T03:30:37.926Z,66.76
2022-08-04T03:36:37.659Z,67.77
2022-08-04T03:42:04.220Z,73.46
2022-08-04T03:47:29.333Z,73.58
2022-08-04T03:53:09.836Z,70.82
2022-08-04T03:58:44.116Z,68.66
2022-08-04T04:04:27.521Z,67.09
2022-08-04T04:10:07.225Z,66.64
2022-08-04T04:15:25.179Z,69.70
2022-08-04T04:20:54.428Z,69.56
2022-08-04T04:26:07.737Z,70.93
2022-08-04T04:31:25.953Z,69.76
2022-08-04T04:36:43.739Z,68.79
2022-08-04T04:42:13.895Z,71.11
2022-08-04T04:47:43.202Z,72.66
2022-08-04T04:52:57.883Z,70.94
2022-08-04T04:58:02.529Z,70.98
2022-08-04T05:03:18.891Z,70.36
2022-08-04T05:08:47.363Z,68.50
2022-08-04T05:14:34.410Z,66.78
2022-08-04T05:19:26.834Z,67.04
2022-08-04T05:24:35.092Z,64.30
2022-08-04T05:29:41.518Z,63.61
2022-08-04T05:34:53.391Z,64.27
2022-08-04T05:40:02.878Z,63.54
2022-08-04T05:45:07.866Z,64.55
2022-08-04T05:50:11.962Z,61.95
2022-08-04T05:55:49.046Z,63.13
2022-08-04T06:00:41.505Z,60.22
2022-08-04T06:05:47.086Z,61.87
2022-08-04T06:10:51.983Z,61.49
2022-08-04T06:15:57.211Z,61.20
2022-08-04T06:21:03.680Z,61.50
2022-08-04T06:26:19.685Z,60.89
2022-08-04T06:32:27.107Z,60.87
2022-08-04T06:37:43.114Z,59.14
2022-08-04T06:42:43.780Z,60.40
2022-08-04T06:47:48.601Z,60.49
2022-08-04T06:52:52.457Z,62.14
2022-08-04T06:58:00.911Z,61.20
2022-08-04T07:03:07.103Z,57.03
2022-08-04T07:08:12.923Z,57.68
2022-08-04T07:13:16.649Z,57.91
2022-08-04T07:18:19.477Z,56.56
2022-08-04T07:23:27.076Z,55.95
2022-08-04T07:28:31.547Z,55.15
2022-08-04T07:33:34.514Z,55.58
2022-08-04T07:38:48.082Z,53.43
2022-08-04T07:43:54.811Z,52.88
2022-08-04T07:48:58.220Z,52.52
2022-08-04T07:54:03.342Z,51.82
2022-08-04T07:59:06.683Z,50.70
2022-08-04T08:04:09.396Z,46.36
2022-08-04T08:09:14.953Z,47.31
2022-08-04T08:14:18.076Z,47.55
2022-08-04T08:19:21.741Z,47.00
2022-08-04T08:24:25.692Z,46.45
2022-08-04T08:29:29.933Z,45.44
2022-08-04T08:34:34.026Z,45.86
2022-08-04T08:39:42.368Z,43.07
2022-08-04T08:45:21.312Z,40.64
2022-08-04T08:50:46.029Z,39.79
2022-08-04T08:56:12.514Z,39.90
2022-08-04T09:01:32.485Z,37.45
2022-08-04T09:07:14.741Z,37.12
2022-08-04T09:12:26.461Z,37.32
2022-08-04T09:17:31.662Z,36.66
2022-08-04T09:22:39.768Z,36.54
2022-08-04T09:27:51.290Z,35.91
2022-08-04T09:33:01.873Z,35.32
2022-08-04T09:38:17.240Z,35.24
2022-08-04T09:43:59.063Z,34.28
2022-08-04T09:49:03.956Z,33.56
2022-08-04T09:54:30.078Z,33.56
2022-08-04T09:59:44.100Z,32.89
2022-08-04T10:04:48.266Z,32.81
2022-08-04T10:10:09.980Z,32.20
2022-08-04T10:15:20.620Z,32.06
2022-08-04T10:20:45.969Z,31.73
2022-08-04T10:26:09.633Z,31.62
2022-08-04T10:31:25.610Z,30.53
2022-08-04T10:36:33.011Z,28.98
2022-08-04T10:41:41.111Z,28.65
2022-08-04T10:46:50.885Z,27.61
2022-08-04T10:52:00.425Z,28.60
2022-08-04T10:57:08.136Z,27.73
2022-08-04T11:02:27.335Z,28.26
2022-08-04T11:07:33.664Z,29.18
2022-08-04T11:12:38.417Z,26.29
2022-08-04T11:17:47.600Z,27.74
2022-08-04T11:22:57.933Z,26.04
2022-08-04T11:28:10.289Z,23.52
2022-08-04T11:33:24.548Z,23.82
2022-08-04T11:38:32.763Z,27.17
2022-08-04T11:44:00.582Z,28.19
2022-08-04T11:49:09.359Z,27.52
2022-08-04T11:54:13.578Z,26.70
2022-08-04T11:59:16.125Z,26.68
2022-08-04T12:04:29.235Z,27.42
2022-08-04T12:09:43.301Z,27.45
2022-08-04T12:14:55.873Z,26.39
2022-08-04T12:20:31.653Z,25.70
2022-08-04T12:25:31.390Z,25.78
2022-08-04T12:31:00.602Z,27.02
2022-08-04T12:36:17.894Z,25.70
2022-08-04T12:41:29.165Z,26.24
2022-08-04T12:46:33.821Z,27.48
2022-08-04T12:52:07.400Z,28.46
2022-08-04T12:57:07.216Z,27.87
2022-08-04T13:02:15.137Z,27.81
2022-08-04T13:07:21.963Z,28.08
2022-08-04T13:12:32.802Z,27.51
2022-08-04T13:17:46.718Z,26.96
2022-08-04T13:22:53.229Z,28.28
2022-08-04T13:27:57.906Z,28.24
2022-08-04T13:33:06.279Z,28.76
2022-08-04T13:38:13.179Z,28.68
2022-08-04T13:44:18.894Z,29.18
2022-08-04T13:49:15.678Z,29.10
2022-08-04T13:54:13.609Z,28.96
2022-08-04T13:59:19.309Z,29.34
2022-08-04T14:04:24.406Z,29.64
2022-08-04T14:09:34.871Z,27.63
2022-08-04T14:14:47.691Z,29.02
2022-08-04T14:19:53.567Z,28.23
2022-08-04T14:24:59.295Z,27.67
2022-08-04T14:30:01.891Z,28.05
2022-08-04T14:35:12.208Z,28.89
2022-08-04T14:40:30.674Z,27.86
2022-08-04T14:45:35.797Z,30.54
2022-08-04T14:50:40.857Z,30.20
2022-08-04T14:55:47.548Z,28.98
2022-08-04T15:00:51.218Z,28.83
2022-08-04T15:06:00.416Z,28.28
2022-08-04T15:11:09.960Z,29.83
2022-08-04T15:16:13.163Z,27.55
2022-08-04T15:21:16.544Z,27.80
2022-08-04T15:26:26.617Z,28.93
2022-08-04T15:32:05.739Z,30.20
2022-08-04T15:37:01.672Z,30.18
2022-08-04T15:42:20.903Z,29.51
2022-08-04T15:47:23.911Z,30.64
2022-08-04T15:52:32.050Z,30.65
2022-08-04T15:58:02.208Z,31.32
2022-08-04T16:03:04.826Z,32.00
2022-08-04T16:08:12.951Z,32.30
2022-08-04T16:13:20.404Z,33.57
2022-08-04T16:18:39.166Z,31.81
2022-08-04T16:24:09.830Z,32.19
2022-08-04T16:29:39.776Z,32.32
2022-08-04T16:34:49.492Z,31.46
2022-08-04T16:40:37.576Z,30.74
2022-08-04T16:46:00.511Z,30.74
2022-08-04T16:51:06.675Z,31.40
2022-08-04T16:56:11.433Z,31.01
2022-08-04T17:01:21.885Z,32.26
2022-08-04T17:06:37.962Z,32.22
2022-08-04T17:11:40.912Z,31.14
2022-08-04T17:16:44.716Z,32.74
2022-08-04T17:21:47.342Z,31.93
2022-08-04T17:26:53.555Z,31.52
2022-08-04T17:31:58.841Z,32.40
2022-08-04T17:42:31.417Z,35.09
2022-08-04T17:47:38.232Z,37.87
2022-08-04T17:52:44.956Z,38.92
2022-08-04T17:57:52.198Z,39.37
2022-08-04T18:02:56.919Z,40.14
2022-08-04T18:08:45.540Z,40.17
2022-08-04T18:13:31.370Z,40.21
2022-08-04T18:19:11.737Z,41.24
2022-08-04T18:24:14.953Z,44.08
2022-08-04T18:29:30.964Z,44.82
2022-08-04T18:34:35.986Z,45.65
2022-08-04T18:40:17.232Z,47.20
2022-08-04T18:45:07.406Z,47.49
2022-08-04T18:51:01.122Z,48.64
2022-08-04T18:55:56.689Z,49.38
2022-08-04T19:01:00.875Z,49.84
2022-08-04T19:06:07.498Z,49.34
2022-08-04T19:11:28.667Z,49.10
2022-08-04T19:16:34.178Z,49.86
2022-08-04T19:21:59.421Z,50.51
2022-08-04T19:27:06.953Z,50.63
2022-08-04T19:37:58.533Z,50.50
2022-08-04T19:43:06.200Z,50.48
2022-08-04T19:48:19.850Z,50.71
2022-08-04T19:53:37.082Z,51.33
2022-08-04T19:58:41.877Z,51.31
2022-08-04T20:09:25.734Z,52.20
2022-08-04T20:14:32.100Z,52.54
2022-08-04T20:19:35.713Z,53.02
2022-08-04T20:24:45.959Z,53.12
2022-08-04T20:29:55.514Z,52.43
2022-08-04T20:34:58.669Z,53.09
2022-08-04T20:40:02.679Z,54.40
2022-08-04T20:45:08.854Z,53.72
2022-08-04T20:50:19.106Z,53.70
2022-08-04T20:55:55.132Z,51.27
2022-08-04T21:00:57.469Z,50.64
2022-08-04T21:06:00.199Z,49.81
2022-08-04T21:11:06.766Z,53.36
2022-08-04T21:16:09.608Z,54.91
2022-08-04T21:21:13.211Z,53.14
2022-08-04T21:26:25.937Z,53.50
2022-08-04T21:31:28.621Z,52.52
2022-08-04T21:36:31.249Z,52.76
2022-08-04T21:42:10.018Z,53.89
2022-08-04T21:46:59.948Z,52.79
2022-08-04T21:52:07.494Z,53.63
2022-08-04T21:57:14.302Z,55.88
2022-08-04T22:02:16.930Z,55.31
2022-08-04T22:07:23.160Z,54.83
2022-08-04T22:12:29.836Z,55.39
2022-08-04T22:17:35.562Z,57.61
2022-08-04T22:22:40.702Z,57.76
2022-08-04T22:28:03.343Z,58.02
2022-08-04T22:33:08.788Z,57.22
2022-08-04T22:38:24.421Z,55.46
2022-08-04T22:43:38.790Z,59.73
2022-08-04T22:48:43.450Z,61.26
2022-08-04T22:53:48.771Z,61.09
2022-08-04T22:58:53.062Z,62.39
2022-08-04T23:03:57.177Z,61.81
2022-08-04T23:08:59.883Z,61.81
2022-08-04T23:14:04.126Z,61.63
2022-08-04T23:19:10.002Z,63.53
2022-08-04T23:24:17.768Z,64.56
2022-08-04T23:29:22.697Z,63.42
2022-08-04T23:34:25.207Z,61.28
2022-08-04T23:40:03.966Z,63.68
2022-08-04T23:44:52.111Z,65.52
2022-08-04T23:49:58.220Z,65.53
2022-08-04T23:55:01.334Z,63.96
